Time;durP1;ratioP1;P1;durP2;ratioP2;P2;SDS_P1;SDS_P2;PMS_P1;PMS_P2;Temp;Humidity;BMP_temperature;BMP_pressure;BME280_temperature;BME280_humidity;BME280_pressure;Samples;Min_cycle;Max_cycle;Signal;HPM_P1;HPM_P2
2021/11/13 00:01:12;;;;;;;28.17;20.60;;;4.30;99.90;;;;;;5040489;28;20687;-81
2021/11/13 00:03:39;;;;;;;29.73;20.48;;;4.20;99.90;;;;;;5039633;28;20223;-82
2021/11/13 00:06:06;;;;;;;26.92;20.02;;;4.30;99.90;;;;;;5049146;28;20206;-81
2021/11/13 00:08:34;;;;;;;25.38;18.80;;;4.20;99.90;;;;;;5048033;28;20230;-82
2021/11/13 00:11:01;;;;;;;24.92;18.65;;;4.00;99.90;;;;;;5040740;28;20215;-81
2021/11/13 00:13:27;;;;;;;26.58;19.83;;;4.00;99.90;;;;;;5047803;28;20259;-81
2021/11/13 00:15:55;;;;;;;26.40;19.75;;;4.10;99.90;;;;;;5038860;28;20206;-81
2021/11/13 00:18:24;;;;;;;26.45;19.23;;;4.50;99.90;;;;;;5038641;28;20236;-80
2021/11/13 00:20:51;;;;;;;26.92;19.65;;;4.20;99.90;;;;;;5041180;28;20210;-80
2021/11/13 00:23:19;;;;;;;24.27;18.08;;;4.00;99.90;;;;;;5041931;28;20230;-82
2021/11/13 00:25:48;;;;;;;27.30;18.83;;;4.20;99.90;;;;;;5039186;28;20217;-81
2021/11/13 00:28:15;;;;;;;27.33;19.45;;;4.10;99.90;;;;;;5038617;28;20317;-80
2021/11/13 00:30:43;;;;;;;26.13;19.65;;;4.30;99.90;;;;;;5038009;28;20203;-81
2021/11/13 00:33:10;;;;;;;33.33;18.85;;;4.20;99.90;;;;;;5038592;28;20245;-81
2021/11/13 00:35:37;;;;;;;30.35;20.00;;;4.40;99.90;;;;;;5040666;28;20698;-81
2021/11/13 00:38:05;;;;;;;26.63;19.75;;;4.20;99.90;;;;;;5041756;28;20206;-80
2021/11/13 00:40:32;;;;;;;28.23;19.67;;;4.10;99.90;;;;;;5050670;28;20268;-80
2021/11/13 00:43:00;;;;;;;24.10;18.48;;;4.00;99.90;;;;;;5050801;28;20361;-80
2021/11/13 00:45:26;;;;;;;33.10;20.83;;;4.20;99.90;;;;;;5041600;28;20667;-81
2021/11/13 00:47:53;;;;;;;30.88;20.52;;;4.30;99.90;;;;;;5038521;28;20217;-82
2021/11/13 00:50:21;;;;;;;27.92;19.17;;;4.60;99.90;;;;;;5038821;28;20270;-81
2021/11/13 00:52:48;;;;;;;32.03;21.35;;;4.60;99.90;;;;;;5038978;28;20309;-81
2021/11/13 00:55:18;;;;;;;31.55;20.63;;;4.60;99.90;;;;;;5038336;28;20242;-81
2021/11/13 00:57:45;;;;;;;33.22;22.42;;;4.40;99.90;;;;;;5038635;28;20753;-80
2021/11/13 01:00:17;;;;;;;30.05;22.27;;;4.60;99.90;;;;;;5038533;28;20322;-80
2021/11/13 01:02:44;;;;;;;30.73;21.35;;;4.40;99.90;;;;;;5041418;28;20287;-81
2021/11/13 01:05:11;;;;;;;30.85;19.50;;;4.50;99.90;;;;;;5037929;28;20207;-81
2021/11/13 01:07:38;;;;;;;29.05;20.45;;;4.60;99.90;;;;;;5038918;28;20206;-80
2021/11/13 01:10:09;;;;;;;35.25;22.92;;;4.70;99.90;;;;;;5038153;28;20585;-81
2021/11/13 01:12:36;;;;;;;30.08;21.35;;;4.80;99.90;;;;;;5038329;28;20409;-81
2021/11/13 01:15:06;;;;;;;28.50;19.98;;;4.40;99.90;;;;;;5038024;28;20578;-81
2021/11/13 01:17:35;;;;;;;38.47;22.50;;;4.70;99.90;;;;;;5037898;28;20207;-81
2021/11/13 01:20:03;;;;;;;30.25;21.77;;;4.60;99.90;;;;;;5046462;28;20242;-80
2021/11/13 01:22:30;;;;;;;33.10;21.30;;;4.70;99.90;;;;;;5047588;28;20250;-80
2021/11/13 01:24:57;;;;;;;27.80;20.30;;;4.70;99.90;;;;;;5048023;28;20231;-82
2021/11/13 01:27:23;;;;;;;25.42;16.23;;;4.50;99.90;;;;;;5041224;28;20211;-81
2021/11/13 01:29:50;;;;;;;32.97;21.40;;;4.60;99.90;;;;;;5038163;28;20233;-81
2021/11/13 01:32:18;;;;;;;31.45;19.48;;;4.50;99.90;;;;;;5037430;28;20292;-81
2021/11/13 01:34:47;;;;;;;31.48;22.58;;;4.30;99.90;;;;;;5040588;28;20256;-81
2021/11/13 01:37:13;;;;;;;29.80;20.50;;;4.20;99.90;;;;;;5049942;28;20219;-81
2021/11/13 01:39:40;;;;;;;30.98;22.33;;;4.00;99.90;;;;;;5039622;28;20314;-79
2021/11/13 01:42:08;;;;;;;32.55;13.82;;;4.00;99.90;;;;;;5038073;28;20293;-80
2021/11/13 01:44:35;;;;;;;36.35;18.52;;;4.10;99.90;;;;;;5043851;28;20197;-81
2021/11/13 01:47:02;;;;;;;34.42;20.45;;;4.40;99.90;;;;;;5046280;28;20263;-81
2021/11/13 01:49:29;;;;;;;33.80;19.52;;;4.30;99.90;;;;;;5054950;28;20275;-81
2021/11/13 01:51:57;;;;;;;34.33;18.42;;;4.20;99.90;;;;;;5042797;28;20221;-81
2021/11/13 01:54:24;;;;;;;36.65;20.83;;;3.90;99.90;;;;;;5039265;28;20297;-81
2021/11/13 01:56:52;;;;;;;36.00;21.20;;;4.00;99.90;;;;;;5047097;28;20206;-81
2021/11/13 01:59:21;;;;;;;44.55;21.45;;;3.80;99.90;;;;;;5052003;28;20227;-80
2021/11/13 02:01:49;;;;;;;29.02;20.75;;;3.90;99.90;;;;;;5051330;28;20208;-80
2021/11/13 02:04:16;;;;;;;47.22;20.85;;;4.00;99.90;;;;;;5051368;28;20211;-80
2021/11/13 02:06:43;;;;;;;44.10;21.63;;;4.20;99.90;;;;;;5046620;28;20206;-81
2021/11/13 02:09:11;;;;;;;37.70;20.70;;;3.80;99.90;;;;;;5037530;28;20693;-82
2021/11/13 02:11:38;;;;;;;42.03;20.42;;;3.90;99.90;;;;;;5050266;28;20257;-81
2021/11/13 02:14:05;;;;;;;30.25;20.50;;;3.70;99.90;;;;;;5047342;28;20226;-81
2021/11/13 02:16:32;;;;;;;38.33;21.45;;;3.70;99.90;;;;;;5040910;28;20320;-81
2021/11/13 02:19:01;;;;;;;38.33;21.83;;;3.60;99.90;;;;;;5054693;28;20295;-81
2021/11/13 02:21:29;;;;;;;36.33;21.02;;;3.80;99.90;;;;;;5041545;28;20309;-82
2021/11/13 02:23:56;;;;;;;42.15;23.20;;;3.60;99.90;;;;;;5036949;28;20230;-81
2021/11/13 02:26:25;;;;;;;36.47;23.52;;;3.70;99.90;;;;;;5037309;28;20270;-81
2021/11/13 02:28:54;;;;;;;31.90;21.50;;;3.80;99.90;;;;;;5039891;28;20238;-82
2021/11/13 02:31:31;;;;;;;37.65;21.02;;;3.90;99.90;;;;;;5038234;28;20233;-81
2021/11/13 02:33:58;;;;;;;35.42;23.30;;;3.90;99.90;;;;;;5040591;28;20242;-80
2021/11/13 02:36:25;;;;;;;30.05;20.25;;;4.00;99.90;;;;;;5041826;28;20213;-81
2021/11/13 02:38:56;;;;;;;34.53;21.35;;;4.00;99.90;;;;;;5037832;28;20225;-80
2021/11/13 02:41:23;;;;;;;37.40;21.58;;;4.00;99.90;;;;;;5039604;28;20587;-79
2021/11/13 02:43:50;;;;;;;33.28;22.67;;;4.00;99.90;;;;;;5036255;28;20296;-80
2021/11/13 02:46:17;;;;;;;33.85;21.55;;;4.10;99.90;;;;;;5039383;28;20246;-81
2021/11/13 02:48:44;;;;;;;31.33;21.95;;;4.40;99.90;;;;;;5044701;28;20318;-81
2021/11/13 02:51:12;;;;;;;32.88;21.63;;;4.30;99.90;;;;;;5039084;28;20193;-81
2021/11/13 02:53:40;;;;;;;33.15;20.35;;;4.00;99.90;;;;;;5036689;28;20302;-81
2021/11/13 02:56:10;;;;;;;31.88;21.23;;;4.30;99.90;;;;;;5036427;28;20297;-81
2021/11/13 02:58:38;;;;;;;29.13;19.98;;;4.40;99.90;;;;;;5040215;28;20194;-81
2021/11/13 03:01:07;;;;;;;26.17;18.33;;;4.00;99.90;;;;;;5050244;28;20717;-81
2021/11/13 03:03:34;;;;;;;29.08;20.40;;;4.20;99.90;;;;;;5040279;28;20232;-81
2021/11/13 03:06:02;;;;;;;30.27;21.52;;;4.00;99.90;;;;;;5040326;28;20606;-80
2021/11/13 03:08:31;;;;;;;31.15;20.65;;;4.00;99.90;;;;;;5039925;28;20258;-80
2021/11/13 03:11:00;;;;;;;33.55;21.20;;;4.20;99.90;;;;;;5042273;28;20199;-81
2021/11/13 03:13:30;;;;;;;30.58;19.63;;;4.20;99.90;;;;;;5042291;28;20257;-81
2021/11/13 03:15:57;;;;;;;30.85;21.48;;;4.10;99.90;;;;;;5044214;28;20210;-80
2021/11/13 03:18:24;;;;;;;32.03;21.83;;;3.90;99.90;;;;;;5050371;28;20198;-80
2021/11/13 03:20:51;;;;;;;36.78;20.80;;;4.10;99.90;;;;;;5050022;28;20257;-81
2021/11/13 03:23:19;;;;;;;30.83;20.25;;;4.20;99.90;;;;;;5040829;28;20233;-81
2021/11/13 03:25:52;;;;;;;28.42;19.90;;;4.30;99.90;;;;;;5039756;28;20274;-81
2021/11/13 03:28:22;;;;;;;26.10;18.20;;;4.00;99.90;;;;;;5040679;28;20195;-80
2021/11/13 03:30:51;;;;;;;27.60;18.02;;;4.30;99.90;;;;;;5046837;28;20634;-80
2021/11/13 03:33:18;;;;;;;22.85;17.90;;;4.10;99.90;;;;;;5042185;28;20288;-80
2021/11/13 03:35:45;;;;;;;25.60;17.90;;;4.10;99.90;;;;;;5041628;28;20206;-81
2021/11/13 03:38:14;;;;;;;24.48;16.63;;;4.40;99.90;;;;;;5040902;28;20211;-81
2021/11/13 03:40:43;;;;;;;22.00;15.10;;;4.50;99.90;;;;;;5047254;28;20321;-80
2021/11/13 03:43:10;;;;;;;24.02;15.65;;;4.30;99.90;;;;;;5040100;28;20238;-82
2021/11/13 03:45:38;;;;;;;21.75;17.63;;;4.20;99.90;;;;;;5047241;28;20202;-80
2021/11/13 03:48:07;;;;;;;23.92;16.52;;;4.50;99.90;;;;;;5044760;28;20207;-81
2021/11/13 03:50:34;;;;;;;21.60;15.90;;;4.50;99.90;;;;;;5044093;28;20205;-81
2021/11/13 03:53:01;;;;;;;21.85;15.75;;;4.10;99.90;;;;;;5043385;28;20242;-81
2021/11/13 03:55:28;;;;;;;20.83;16.10;;;4.10;99.90;;;;;;5043524;28;20279;-82
2021/11/13 03:57:55;;;;;;;22.42;16.50;;;4.30;99.90;;;;;;5043886;28;20211;-81
2021/11/13 04:00:23;;;;;;;21.60;17.08;;;4.30;99.90;;;;;;5053350;28;20238;-82
2021/11/13 04:02:51;;;;;;;20.83;16.08;;;4.20;99.90;;;;;;5058243;28;20234;-81
2021/11/13 04:05:20;;;;;;;21.30;15.35;;;4.20;99.90;;;;;;5048958;28;20639;-81
2021/11/13 04:07:47;;;;;;;20.52;15.20;;;4.30;99.90;;;;;;5043464;28;20202;-81
2021/11/13 04:10:15;;;;;;;17.92;12.20;;;4.30;99.90;;;;;;5044937;28;20566;-80
2021/11/13 04:12:43;;;;;;;21.77;16.38;;;4.40;99.90;;;;;;5052639;28;20265;-81
2021/11/13 04:15:12;;;;;;;20.15;15.20;;;4.20;99.90;;;;;;5050395;28;20230;-80
2021/11/13 04:17:39;;;;;;;22.25;15.45;;;4.50;99.90;;;;;;5044585;28;20213;-82
2021/11/13 04:20:09;;;;;;;21.20;15.05;;;4.20;99.90;;;;;;5039533;28;20286;-81
2021/11/13 04:22:37;;;;;;;21.10;15.05;;;4.20;99.90;;;;;;5039316;28;20222;-81
2021/11/13 04:25:05;;;;;;;21.20;16.25;;;4.40;99.90;;;;;;5043694;28;20213;-79
2021/11/13 04:27:32;;;;;;;21.25;15.60;;;4.30;99.90;;;;;;5047177;28;20207;-80
2021/11/13 04:29:59;;;;;;;21.73;16.15;;;4.30;99.90;;;;;;5042847;28;20234;-80
2021/11/13 04:32:29;;;;;;;21.05;16.27;;;4.20;99.90;;;;;;5040040;28;20269;-82
2021/11/13 04:35:14;;;;;;;21.40;15.90;;;4.40;99.90;;;;;;5039541;28;20202;-82
2021/11/13 04:37:44;;;;;;;22.38;15.93;;;4.50;99.90;;;;;;5045182;28;20214;-81
2021/11/13 04:40:11;;;;;;;20.10;15.73;;;4.50;99.90;;;;;;5039102;28;20265;-81
2021/11/13 04:42:38;;;;;;;22.80;14.75;;;4.30;99.90;;;;;;5065463;22;20230;-77
2021/11/13 04:45:06;;;;;;;21.55;15.48;;;4.70;99.90;;;;;;5058262;28;20201;-78
2021/11/13 04:47:33;;;;;;;23.05;16.80;;;4.50;99.90;;;;;;5056908;28;20236;-77
2021/11/13 04:50:00;;;;;;;20.00;16.08;;;4.40;99.90;;;;;;5066650;28;20210;-78
2021/11/13 04:52:27;;;;;;;21.55;15.75;;;4.60;99.90;;;;;;5059133;28;20206;-78
2021/11/13 04:54:56;;;;;;;19.48;15.20;;;4.60;99.90;;;;;;5057130;28;20213;-78
2021/11/13 04:57:23;;;;;;;20.33;14.93;;;4.80;99.90;;;;;;5056769;28;20232;-78
2021/11/13 04:59:50;;;;;;;20.83;15.90;;;4.70;99.90;;;;;;5056631;28;20202;-78
2021/11/13 05:02:17;;;;;;;22.20;17.00;;;4.80;99.90;;;;;;5056204;28;20225;-78
2021/11/13 05:04:44;;;;;;;19.90;14.82;;;4.50;99.90;;;;;;5056391;28;20202;-77
2021/11/13 05:07:10;;;;;;;23.15;16.58;;;4.80;99.90;;;;;;5056715;28;20206;-77
2021/11/13 05:09:37;;;;;;;19.35;15.80;;;4.90;99.90;;;;;;5056707;28;20202;-77
2021/11/13 05:12:07;;;;;;;19.15;14.88;;;4.60;99.90;;;;;;5056728;28;20208;-77
2021/11/13 05:14:34;;;;;;;20.65;15.68;;;5.00;99.90;;;;;;5056460;28;20230;-78
2021/11/13 05:17:00;;;;;;;17.95;15.25;;;4.80;99.90;;;;;;5056202;28;20240;-77
2021/11/13 05:19:27;;;;;;;19.58;15.48;;;4.90;99.90;;;;;;5056152;28;20210;-77
2021/11/13 05:21:54;;;;;;;20.33;15.40;;;4.70;99.90;;;;;;5056043;28;20226;-77
2021/11/13 05:24:21;;;;;;;21.25;15.98;;;5.00;99.90;;;;;;5055518;28;20718;-77
2021/11/13 05:26:48;;;;;;;20.05;14.88;;;5.00;99.90;;;;;;5055860;28;20205;-78
2021/11/13 05:29:16;;;;;;;19.45;14.63;;;4.80;99.90;;;;;;5056029;28;20578;-78
2021/11/13 05:31:43;;;;;;;20.52;15.00;;;5.00;99.90;;;;;;5055270;28;20198;-78
2021/11/13 05:34:10;;;;;;;19.92;15.98;;;4.80;99.90;;;;;;5055926;28;20230;-78
2021/11/13 05:36:36;;;;;;;17.88;15.02;;;4.80;99.90;;;;;;5056353;28;20645;-78
2021/11/13 05:39:03;;;;;;;19.45;15.68;;;4.80;99.90;;;;;;5059636;28;20212;-78
2021/11/13 05:41:30;;;;;;;17.80;14.27;;;4.90;99.90;;;;;;5056787;28;20222;-78
2021/11/13 05:43:57;;;;;;;22.95;16.20;;;4.80;99.90;;;;;;5056767;28;20272;-78
2021/11/13 05:46:25;;;;;;;19.67;14.52;;;4.90;99.90;;;;;;5058747;28;20212;-78
2021/11/13 05:48:52;;;;;;;23.00;15.48;;;4.90;99.90;;;;;;5058325;28;20213;-78
2021/11/13 05:51:19;;;;;;;17.42;13.90;;;4.90;99.90;;;;;;5055683;28;20299;-78
2021/11/13 05:53:46;;;;;;;19.50;15.15;;;4.90;99.90;;;;;;5055160;28;20749;-78
2021/11/13 05:56:13;;;;;;;21.30;14.65;;;4.90;99.90;;;;;;5056138;28;20202;-78
2021/11/13 05:58:40;;;;;;;19.15;14.55;;;4.90;99.90;;;;;;5055062;28;20205;-78
2021/11/13 06:01:07;;;;;;;19.05;14.20;;;5.10;99.90;;;;;;5055330;28;20230;-78
2021/11/13 06:03:35;;;;;;;19.40;15.63;;;4.90;99.90;;;;;;5062737;28;20316;-78
2021/11/13 06:06:01;;;;;;;19.02;15.40;;;5.10;99.90;;;;;;5062884;28;20269;-79
2021/11/13 06:08:28;;;;;;;18.83;14.27;;;4.90;99.90;;;;;;5066532;28;20202;-79
2021/11/13 06:10:55;;;;;;;18.77;15.27;;;5.20;99.90;;;;;;5056786;28;20226;-78
2021/11/13 06:13:22;;;;;;;19.20;14.02;;;5.10;99.90;;;;;;5056151;28;20258;-78
2021/11/13 06:15:49;;;;;;;17.23;14.23;;;5.10;99.90;;;;;;5056465;28;20597;-77
2021/11/13 06:18:16;;;;;;;18.13;13.70;;;5.30;99.90;;;;;;5055496;28;20206;-78
2021/11/13 06:20:44;;;;;;;17.88;14.85;;;5.20;99.90;;;;;;5055641;28;20218;-78
2021/11/13 06:23:11;;;;;;;18.40;13.55;;;5.20;99.90;;;;;;5058192;28;20229;-81
2021/11/13 06:25:38;;;;;;;25.42;15.23;;;5.30;99.90;;;;;;5066209;28;20209;-81
2021/11/13 06:28:05;;;;;;;18.95;14.27;;;5.20;99.90;;;;;;5061157;28;20288;-78
2021/11/13 06:30:32;;;;;;;17.10;14.13;;;5.40;99.90;;;;;;5055348;28;20292;-78
2021/11/13 06:32:58;;;;;;;21.17;14.73;;;5.50;99.90;;;;;;5058856;28;20261;-81
2021/11/13 06:35:25;;;;;;;16.60;13.50;;;5.50;99.90;;;;;;5056278;28;20216;-79
2021/11/13 06:37:54;;;;;;;20.48;15.48;;;5.80;99.90;;;;;;5056936;28;20209;-80
2021/11/13 06:40:20;;;;;;;18.02;14.63;;;5.80;99.90;;;;;;5056849;28;20225;-79
2021/11/13 06:42:47;;;;;;;17.92;13.07;;;5.70;99.90;;;;;;5056522;28;20236;-80
2021/11/13 06:45:15;;;;;;;17.15;12.30;;;5.80;99.90;;;;;;5057472;28;20206;-81
2021/11/13 06:47:42;;;;;;;17.85;13.82;;;5.90;99.90;;;;;;5057737;28;20623;-81
2021/11/13 06:50:11;;;;;;;20.65;13.07;;;5.90;99.90;;;;;;5056834;28;20220;-79
2021/11/13 06:52:38;;;;;;;20.23;14.25;;;6.10;99.90;;;;;;5056468;28;20309;-78
2021/11/13 06:55:08;;;;;;;21.60;13.52;;;5.90;99.90;;;;;;5055423;28;20687;-78
2021/11/13 06:57:35;;;;;;;19.67;13.52;;;5.90;99.90;;;;;;5055891;28;20288;-77
2021/11/13 07:00:02;;;;;;;19.60;12.88;;;6.10;99.90;;;;;;5056136;28;20212;-78
2021/11/13 07:02:29;;;;;;;17.17;13.02;;;6.20;99.90;;;;;;5057041;28;20222;-79
2021/11/13 07:04:56;;;;;;;18.65;13.05;;;6.20;99.90;;;;;;5055815;28;20770;-77
2021/11/13 07:07:22;;;;;;;18.20;15.25;;;6.10;99.90;;;;;;5055541;28;20208;-79
2021/11/13 07:09:49;;;;;;;18.10;14.32;;;6.20;99.90;;;;;;5060628;28;20206;-78
2021/11/13 07:12:18;;;;;;;15.40;12.93;;;6.30;99.90;;;;;;5062809;28;20198;-78
2021/11/13 07:14:44;;;;;;;16.77;13.65;;;6.30;99.90;;;;;;5067731;28;20301;-78
2021/11/13 07:17:11;;;;;;;17.98;14.45;;;6.10;99.90;;;;;;5070715;28;20206;-78
2021/11/13 07:19:39;;;;;;;21.77;15.05;;;6.20;99.90;;;;;;5063459;28;20761;-78
2021/11/13 07:22:06;;;;;;;17.30;12.85;;;6.10;99.90;;;;;;5058277;28;20227;-79
2021/11/13 07:24:33;;;;;;;17.70;14.30;;;6.40;99.90;;;;;;5060427;28;20312;-79
2021/11/13 07:27:00;;;;;;;20.63;13.77;;;6.30;99.90;;;;;;5062028;28;20206;-79
2021/11/13 07:29:29;;;;;;;19.92;15.32;;;6.40;99.90;;;;;;5059211;28;20230;-79
2021/11/13 07:31:56;;;;;;;20.48;14.23;;;6.20;99.90;;;;;;5056201;28;20206;-77
2021/11/13 07:34:23;;;;;;;16.98;13.88;;;6.20;99.90;;;;;;5053804;28;20222;-76
2021/11/13 07:36:50;;;;;;;16.63;13.43;;;6.20;99.90;;;;;;5054810;28;20237;-78
2021/11/13 07:39:17;;;;;;;17.75;13.30;;;6.40;99.90;;;;;;5057579;28;20202;-77
2021/11/13 07:41:44;;;;;;;19.58;14.45;;;6.50;99.90;;;;;;5053545;28;20569;-77
2021/11/13 07:44:10;;;;;;;18.40;13.27;;;6.50;99.90;;;;;;5052419;28;20320;-76
2021/11/13 07:46:39;;;;;;;17.58;13.00;;;6.30;99.90;;;;;;5055813;28;20217;-78
2021/11/13 07:49:06;;;;;;;19.52;13.38;;;6.30;99.90;;;;;;5056909;28;20237;-78
2021/11/13 07:51:33;;;;;;;15.82;13.57;;;6.20;99.90;;;;;;5056786;28;20202;-77
2021/11/13 07:54:00;;;;;;;18.27;14.13;;;6.10;99.90;;;;;;5056957;28;20607;-77
2021/11/13 07:56:27;;;;;;;19.30;13.90;;;6.20;99.90;;;;;;5056423;28;20210;-76
2021/11/13 07:58:54;;;;;;;16.45;13.10;;;6.40;99.90;;;;;;5056081;28;20241;-76
2021/11/13 08:01:20;;;;;;;20.92;14.15;;;6.30;99.90;;;;;;5056291;28;20225;-76
2021/11/13 08:03:50;;;;;;;17.65;12.00;;;6.40;99.90;;;;;;5056438;28;20226;-76
2021/11/13 08:06:17;;;;;;;14.02;11.05;;;6.50;99.90;;;;;;5057466;28;20226;-78
2021/11/13 08:08:43;;;;;;;14.38;11.27;;;6.80;99.90;;;;;;5056567;28;20247;-78
2021/11/13 08:11:10;;;;;;;16.42;10.68;;;6.80;99.90;;;;;;5057051;28;20245;-77
2021/11/13 08:13:39;;;;;;;12.88;10.63;;;6.80;99.90;;;;;;5059349;28;20595;-78
2021/11/13 08:16:06;;;;;;;15.45;12.05;;;7.00;99.90;;;;;;5067932;28;20554;-78
2021/11/13 08:18:33;;;;;;;14.00;11.23;;;7.20;99.90;;;;;;5058978;28;20663;-78
2021/11/13 08:21:02;;;;;;;15.77;11.32;;;7.20;99.90;;;;;;5059797;28;20596;-83
2021/11/13 08:23:30;;;;;;;15.70;11.43;;;7.00;99.90;;;;;;5063549;28;20321;-81
2021/11/13 08:25:57;;;;;;;15.30;11.48;;;7.20;99.90;;;;;;5060570;28;20666;-78
2021/11/13 08:28:24;;;;;;;14.52;10.02;;;7.40;99.90;;;;;;5056189;28;20207;-78
2021/11/13 08:30:51;;;;;;;14.23;10.82;;;7.50;99.90;;;;;;5056788;28;20298;-76
2021/11/13 08:33:19;;;;;;;14.27;10.45;;;7.50;99.90;;;;;;5057383;28;20236;-78
2021/11/13 08:35:51;;;;;;;13.82;10.02;;;7.70;99.90;;;;;;5059911;28;20672;-78
2021/11/13 08:38:21;;;;;;;14.93;9.30;;;7.80;99.90;;;;;;5056719;28;20227;-78
2021/11/13 08:40:49;;;;;;;14.32;10.45;;;7.90;99.90;;;;;;5057016;28;20346;-77
2021/11/13 08:43:18;;;;;;;13.10;10.20;;;8.00;99.90;;;;;;5055532;28;20235;-77
2021/11/13 08:45:46;;;;;;;12.93;10.50;;;7.70;99.90;;;;;;5055579;28;20206;-76
2021/11/13 08:48:13;;;;;;;14.02;10.02;;;8.00;99.90;;;;;;5055649;28;20217;-76
2021/11/13 08:50:41;;;;;;;12.73;9.23;;;8.10;99.90;;;;;;5055420;28;20195;-76
2021/11/13 08:53:10;;;;;;;14.77;10.77;;;8.10;99.90;;;;;;5055643;28;20248;-78
2021/11/13 08:55:39;;;;;;;15.43;10.55;;;8.20;99.90;;;;;;5056455;28;20214;-77
2021/11/13 08:58:08;;;;;;;13.57;10.30;;;7.70;99.90;;;;;;5055915;28;20646;-78
2021/11/13 09:00:39;;;;;;;15.65;11.52;;;8.10;99.90;;;;;;5055849;28;20634;-76
2021/11/13 09:03:09;;;;;;;13.45;10.80;;;8.10;99.90;;;;;;5055437;28;20242;-77
2021/11/13 09:05:37;;;;;;;13.60;9.48;;;8.30;99.90;;;;;;5055413;28;20250;-77
2021/11/13 09:08:04;;;;;;;17.08;10.48;;;8.00;99.90;;;;;;5057281;28;20582;-85
2021/11/13 09:10:32;;;;;;;14.80;10.10;;;8.30;99.90;;;;;;5061663;28;20210;-82
2021/11/13 09:13:00;;;;;;;12.73;9.52;;;8.20;99.90;;;;;;5061076;28;20639;-82
2021/11/13 09:15:31;;;;;;;12.80;9.80;;;8.40;99.90;;;;;;5062446;28;20324;-81
2021/11/13 09:17:58;;;;;;;12.85;9.85;;;8.40;99.90;;;;;;5061611;28;20282;-81
2021/11/13 09:20:26;;;;;;;15.38;10.75;;;8.10;99.90;;;;;;5061294;28;20306;-82
2021/11/13 09:22:54;;;;;;;12.18;10.68;;;8.40;99.90;;;;;;5062146;28;20230;-82
2021/11/13 09:25:22;;;;;;;16.25;9.80;;;8.50;99.90;;;;;;5068703;28;20207;-82
2021/11/13 09:27:49;;;;;;;13.07;9.70;;;8.70;99.90;;;;;;5063975;28;20303;-81
2021/11/13 09:30:20;;;;;;;15.23;9.38;;;8.70;99.90;;;;;;5062020;28;20290;-81
2021/11/13 09:32:47;;;;;;;14.18;9.75;;;8.80;99.90;;;;;;5060817;28;20617;-82
2021/11/13 09:35:15;;;;;;;13.68;9.98;;;9.00;99.90;;;;;;5060826;28;20204;-82
2021/11/13 09:37:43;;;;;;;11.43;8.80;;;9.10;99.90;;;;;;5060596;28;20199;-81
2021/11/13 09:40:11;;;;;;;12.77;8.57;;;9.20;99.90;;;;;;5058702;28;20213;-81
2021/11/13 09:42:38;;;;;;;11.77;8.40;;;9.40;99.90;;;;;;5059040;28;20234;-81
2021/11/13 09:45:06;;;;;;;10.68;8.13;;;9.60;99.90;;;;;;5060475;28;20282;-81
2021/11/13 09:47:35;;;;;;;15.30;9.02;;;9.60;99.90;;;;;;5062825;28;20781;-81
2021/11/13 09:50:03;;;;;;;12.65;7.95;;;9.80;99.90;;;;;;5061697;28;20272;-82
2021/11/13 09:52:30;;;;;;;10.10;7.43;;;10.00;99.90;;;;;;5061211;28;20200;-81
2021/11/13 09:54:59;;;;;;;8.80;7.10;;;10.10;99.90;;;;;;5060530;28;20924;-84
2021/11/13 09:57:26;;;;;;;15.07;7.60;;;10.20;99.90;;;;;;5059684;28;20971;-82
2021/11/13 09:59:53;;;;;;;10.93;7.47;;;10.40;99.90;;;;;;5059481;28;20509;-82
2021/11/13 10:02:31;;;;;;;9.77;7.20;;;10.50;99.90;;;;;;5059494;28;20498;-77
2021/11/13 10:05:00;;;;;;;11.27;7.70;;;10.60;99.90;;;;;;5075677;28;20458;-77
2021/11/13 10:07:27;;;;;;;10.82;7.35;;;10.60;99.90;;;;;;5055339;28;21015;-78
2021/11/13 10:09:54;;;;;;;10.23;8.67;;;10.50;99.90;;;;;;5056647;28;20573;-78
2021/11/13 10:12:34;;;;;;;10.10;7.40;;;10.50;99.90;;;;;;5065867;28;20486;-80
2021/11/13 10:15:01;;;;;;;14.80;8.10;;;10.50;99.90;;;;;;5069758;28;20431;-81
2021/11/13 10:17:27;;;;;;;11.53;8.20;;;10.50;99.90;;;;;;5071952;28;20219;-79
2021/11/13 10:19:54;;;;;;;11.63;8.23;;;10.60;99.90;;;;;;5072681;28;20521;-81
2021/11/13 10:22:23;;;;;;;16.70;11.55;;;10.60;99.90;;;;;;5067511;28;20484;-81
2021/11/13 10:24:54;;;;;;;11.67;9.80;;;10.30;99.90;;;;;;5059701;28;20386;-82
2021/11/13 10:27:21;;;;;;;12.47;9.93;;;10.30;99.90;;;;;;5059941;28;20436;-83
2021/11/13 10:29:48;;;;;;;16.13;11.57;;;10.30;99.90;;;;;;5059668;28;20426;-82
2021/11/13 10:32:18;;;;;;;13.75;9.95;;;10.30;99.90;;;;;;5059895;28;20555;-81
2021/11/13 10:34:47;;;;;;;14.97;12.10;;;10.50;99.90;;;;;;5060267;28;20233;-83
2021/11/13 10:37:17;;;;;;;14.90;12.00;;;10.40;99.90;;;;;;5058572;28;20546;-81
2021/11/13 10:39:46;;;;;;;17.13;12.03;;;10.40;99.90;;;;;;5059450;28;20259;-82
2021/11/13 10:42:15;;;;;;;17.30;11.95;;;10.30;99.90;;;;;;5058168;28;20507;-81
2021/11/13 10:44:47;;;;;;;15.82;12.05;;;10.20;99.90;;;;;;5088925;22;20300;-86
2021/11/13 10:47:17;;;;;;;17.83;12.40;;;10.00;99.90;;;;;;5069026;28;20648;-87
2021/11/13 10:49:45;;;;;;;17.92;11.60;;;9.90;99.90;;;;;;5064264;28;20206;-86
2021/11/13 10:52:12;;;;;;;14.55;12.00;;;9.80;99.90;;;;;;5060424;28;20267;-87
2021/11/13 10:54:43;;;;;;;18.10;13.55;;;9.60;99.90;;;;;;5070183;28;20344;-88
2021/11/13 10:57:12;;;;;;;16.55;12.88;;;9.60;99.90;;;;;;5061948;28;20252;-87
2021/11/13 10:59:41;;;;;;;23.10;16.20;;;9.50;99.90;;;;;;5059712;28;20274;-88
2021/11/13 11:02:10;;;;;;;18.42;13.57;;;9.50;99.90;;;;;;5056959;28;20575;-88
2021/11/13 11:04:39;;;;;;;20.45;12.65;;;9.40;99.90;;;;;;5056764;28;20664;-88
2021/11/13 11:07:08;;;;;;;17.77;12.52;;;9.50;99.90;;;;;;5056819;28;20235;-88
2021/11/13 11:09:36;;;;;;;15.80;13.05;;;9.40;99.90;;;;;;5057698;28;20215;-88
2021/11/13 11:12:06;;;;;;;15.45;11.38;;;9.40;99.90;;;;;;5058295;28;20671;-88
2021/11/13 11:14:35;;;;;;;14.23;11.40;;;9.20;99.90;;;;;;5058281;28;20355;-88
2021/11/13 11:17:04;;;;;;;17.75;13.02;;;9.10;99.90;;;;;;5056894;28;20202;-87
2021/11/13 11:19:33;;;;;;;17.92;13.65;;;8.90;99.90;;;;;;5056076;28;20710;-88
2021/11/13 11:22:07;;;;;;;15.23;13.35;;;8.90;99.90;;;;;;5059591;28;20202;-87
2021/11/13 11:24:38;;;;;;;16.42;12.75;;;8.90;99.90;;;;;;5063320;28;20294;-88
2021/11/13 11:27:13;;;;;;;18.35;14.43;;;8.80;99.90;;;;;;5068940;28;20192;-87
2021/11/13 11:29:49;;;;;;;16.75;14.65;;;8.80;99.90;;;;;;5060510;28;20271;-87
2021/11/13 11:32:20;;;;;;;18.92;13.90;;;8.90;99.90;;;;;;5060783;28;20679;-87
2021/11/13 11:34:48;;;;;;;17.27;14.40;;;8.90;99.90;;;;;;5060461;28;20258;-87
2021/11/13 11:37:20;;;;;;;16.65;13.90;;;9.10;99.90;;;;;;5060238;28;20223;-81
2021/11/13 11:39:48;;;;;;;19.65;15.32;;;9.10;99.90;;;;;;5060340;28;20298;-82
2021/11/13 11:42:16;;;;;;;20.48;14.10;;;9.10;99.90;;;;;;5061587;28;20206;-81
2021/11/13 11:44:46;;;;;;;20.27;15.50;;;9.20;99.90;;;;;;5060612;28;20333;-81
2021/11/13 11:47:15;;;;;;;25.10;15.90;;;9.30;99.90;;;;;;5060488;28;20205;-80
2021/11/13 11:49:46;;;;;;;19.98;15.10;;;9.40;99.90;;;;;;5060192;28;20289;-83
2021/11/13 11:52:16;;;;;;;23.02;17.25;;;9.30;99.90;;;;;;5061231;28;20199;-80
2021/11/13 11:54:45;;;;;;;21.20;16.45;;;9.20;99.90;;;;;;5060647;28;20232;-80
2021/11/13 11:57:12;;;;;;;20.13;16.08;;;9.30;99.90;;;;;;5059732;28;20212;-81
2021/11/13 11:59:40;;;;;;;19.17;14.15;;;9.30;99.90;;;;;;5061219;28;20233;-80
2021/11/13 12:02:12;;;;;;;21.25;15.95;;;9.30;99.90;;;;;;5061414;28;20272;-82
2021/11/13 12:04:39;;;;;;;20.05;16.42;;;9.50;99.90;;;;;;5060796;28;20236;-80
2021/11/13 12:07:09;;;;;;;18.98;15.40;;;9.50;99.90;;;;;;5061245;28;20245;-80
2021/11/13 12:10:04;;;;;;;24.83;16.65;;;9.60;99.90;;;;;;5060366;28;20271;-81
2021/11/13 12:12:31;;;;;;;21.08;16.48;;;9.70;99.90;;;;;;5060976;28;20283;-83
2021/11/13 12:15:19;;;;;;;17.65;15.18;;;9.80;99.90;;;;;;5060362;28;20234;-81
2021/11/13 12:17:49;;;;;;;21.73;15.75;;;9.70;99.90;;;;;;5060798;28;20258;-80
2021/11/13 12:20:32;;;;;;;20.23;16.40;;;9.70;99.90;;;;;;5060465;28;20302;-81
2021/11/13 12:23:08;;;;;;;19.10;16.02;;;9.70;99.90;;;;;;5064036;28;20326;-81
2021/11/13 12:25:37;;;;;;;19.23;15.23;;;9.90;99.90;;;;;;5059613;28;20211;-80
2021/11/13 12:28:16;;;;;;;19.20;14.60;;;10.10;99.90;;;;;;5060087;28;20257;-82
2021/11/13 12:30:55;;;;;;;21.50;14.95;;;10.30;99.90;;;;;;5060440;28;20245;-81
2021/11/13 12:33:49;;;;;;;24.10;17.90;;;10.30;99.90;;;;;;5065857;28;20242;-81
2021/11/13 12:36:20;;;;;;;23.20;16.30;;;10.10;99.90;;;;;;5059888;28;20546;-81
2021/11/13 12:38:53;;;;;;;30.00;22.60;;;10.30;99.90;;;;;;5060094;28;20455;-81
2021/11/13 12:41:22;;;;;;;26.15;19.15;;;10.30;99.90;;;;;;5059913;28;20435;-85
2021/11/13 12:44:07;;;;;;;26.25;19.08;;;10.50;99.90;;;;;;5059414;28;20263;-80